Date,TemperatureHighF,TemperatureAvgF,TemperatureLowF,DewpointHighF,DewpointAvgF,DewpointLowF,HumidityHigh,HumidityAvg,HumidityLow,PressureMaxIn,PressureMinIn,WindSpeedMaxMPH,WindSpeedAvgMPH,GustSpeedMaxMPH,PrecipitationSumIn
2013-2-1,40.3,35.9,27.7,34.6,19.4,2.1,82,54,20,30.16,29.87,9,3,0,0.00
2013-2-2,45.9,29.1,18.7,36.9,22.7,9.8,98,81,24,30.18,29.95,3,0,0,0.04
2013-2-3,50.5,38.7,28.9,45.7,33.9,28.4,98,85,56,29.96,29.78,8,2,0,0.30
2013-2-4,49.6,37.7,26.1,36.5,30.1,25.6,98,77,44,29.97,29.84,4,1,0,0.00
2013-2-5,60.8,45.1,33.1,53.3,42.6,32.6,98,92,66,29.87,29.78,5,1,0,0.00
2013-2-6,67.1,47.4,31.5,48.7,34.8,23.6,98,71,21,30.01,29.84,5,1,0,0.00
2013-2-7,49.5,43.3,34.9,46.0,39.6,34.4,98,88,59,30.03,29.80,6,1,0,0.26
2013-2-8,56.1,48.0,41.7,55.6,46.3,39.8,98,94,69,29.92,29.75,7,1,0,0.00
2013-2-9,61.0,39.0,24.6,40.9,30.6,18.5,98,80,21,30.13,29.92,6,1,0,0.00
2013-2-10,40.8,39.0,34.2,37.2,34.8,32.5,98,85,72,30.17,30.12,0,0,0,0.00
2013-2-11,40.1,40.1,40.1,35.1,35.1,35.1,82,82,82,30.12,30.12,0,0,0,0.00
2013-2-12,40.1,40.1,40.1,35.1,35.1,35.1,82,82,82,30.12,30.12,0,0,0,0.00
2013-2-13,40.1,40.1,40.1,35.1,35.1,35.1,82,82,82,30.12,30.12,0,0,0,0.00
2013-2-14,40.1,40.1,40.1,35.1,35.1,35.1,82,82,82,30.12,30.12,0,0,0,0.00
2013-2-15,40.1,40.1,40.1,35.1,35.1,35.1,82,82,82,30.12,30.12,0,0,0,0.00
2013-2-16,43.5,37.6,27.3,40.8,29.4,15.7,98,74,43,30.12,29.74,8,3,0,0.00
2013-2-17,44.4,32.2,23.9,19.4,14.7,10.5,68,50,28,30.06,29.88,8,3,0,0.00
2013-2-18,56.7,36.4,19.9,32.6,25.5,19.5,98,72,36,30.18,30.03,6,1,0,0.00
2013-2-19,54.1,42.1,33.8,52.7,36.0,27.3,98,81,44,30.03,29.78,6,1,0,0.35
2013-2-20,58.5,46.2,31.5,58.2,27.9,-37.9,99,62,2,29.96,29.90,5,2,0,0.00
2013-2-21,60.1,41.6,25.9,45.1,24.5,14.9,98,59,20,30.03,29.84,6,1,0,0.00
2013-2-22,45.0,39.8,36.9,44.4,39.3,36.3,98,98,98,30.05,29.91,9,3,0,1.05
2013-2-23,50.2,43.7,39.7,49.6,43.2,39.2,98,98,98,29.95,29.67,3,1,0,0.67
2013-2-24,65.5,48.4,31.6,49.3,36.7,28.1,98,71,28,29.84,29.70,5,1,0,0.00
2013-2-25,50.4,41.6,32.7,41.0,33.3,29.0,98,74,51,29.93,29.78,9,3,0,0.00
2013-2-26,43.7,38.8,34.5,43.2,38.3,34.0,98,98,98,29.82,29.41,8,3,0,1.05
2013-2-27,56.5,45.8,38.3,44.2,40.0,37.4,98,82,55,29.68,29.51,8,3,0,0.00
2013-2-28,48.0,40.6,35.4,44.4,33.8,28.5,98,77,63,29.78,29.62,6,2,0,0.00